createdAt,value
2022-09-24T00:01:38.540Z,8.40
2022-09-24T00:04:08.065Z,8.40
2022-09-24T00:06:41.081Z,8.40
2022-09-24T00:09:08.331Z,8.40
2022-09-24T00:11:35.533Z,8.40
2022-09-24T00:14:02.684Z,8.40
2022-09-24T00:16:33.955Z,8.40
2022-09-24T00:19:02.920Z,8.40
2022-09-24T00:21:35.105Z,8.40
2022-09-24T00:24:05.444Z,8.40
2022-09-24T00:26:50.183Z,8.30
2022-09-24T00:29:24.078Z,8.30
2022-09-24T00:31:52.007Z,8.30
2022-09-24T00:34:19.582Z,8.20
2022-09-24T00:36:46.843Z,8.20
2022-09-24T00:39:14.256Z,8.20
2022-09-24T00:41:47.085Z,8.30
2022-09-24T00:44:38.477Z,8.20
2022-09-24T00:47:05.593Z,8.20
2022-09-24T00:49:32.352Z,8.20
2022-09-24T00:51:59.025Z,8.20
2022-09-24T00:54:28.507Z,8.10
2022-09-24T00:56:59.424Z,8.10
2022-09-24T00:59:28.047Z,8.10
2022-09-24T01:01:57.616Z,8.10
2022-09-24T01:04:26.285Z,8.10
2022-09-24T01:06:53.376Z,8.10
2022-09-24T01:09:22.465Z,8.10
2022-09-24T01:12:23.199Z,8.10
2022-09-24T01:15:38.335Z,8.00
2022-09-24T01:18:15.983Z,8.00
2022-09-24T01:21:01.161Z,7.90
2022-09-24T01:23:47.761Z,7.90
2022-09-24T01:26:19.544Z,7.90
2022-09-24T01:29:22.690Z,7.80
2022-09-24T01:32:02.068Z,7.80
2022-09-24T01:34:35.477Z,7.70
2022-09-24T01:37:03.655Z,7.80
2022-09-24T01:39:33.079Z,7.80
2022-09-24T01:42:00.306Z,7.70
2022-09-24T01:44:27.347Z,7.70
2022-09-24T01:46:54.685Z,7.70
2022-09-24T01:49:21.528Z,7.70
2022-09-24T01:51:52.487Z,7.60
2022-09-24T01:54:26.735Z,7.50
2022-09-24T01:57:16.324Z,7.50
2022-09-24T02:00:10.610Z,7.40
2022-09-24T02:03:05.518Z,7.30
2022-09-24T02:05:36.496Z,7.30
2022-09-24T02:08:26.044Z,7.20
2022-09-24T02:10:58.580Z,7.20
2022-09-24T02:13:27.955Z,7.10
2022-09-24T02:15:59.614Z,7.10
2022-09-24T02:18:33.160Z,7.10
2022-09-24T02:21:04.543Z,7.10
2022-09-24T02:23:33.604Z,7.00
2022-09-24T02:26:03.854Z,7.00
2022-09-24T02:28:32.835Z,6.90
2022-09-24T02:31:05.599Z,6.90
2022-09-24T02:33:52.563Z,6.80
2022-09-24T02:36:19.568Z,6.70
2022-09-24T02:38:47.002Z,6.70
2022-09-24T02:41:14.419Z,6.70
2022-09-24T02:43:41.100Z,6.70
2022-09-24T02:46:11.285Z,6.70
2022-09-24T02:48:38.252Z,6.80
2022-09-24T02:51:05.412Z,6.80
2022-09-24T02:53:33.101Z,6.90
2022-09-24T02:56:03.168Z,6.90
2022-09-24T02:58:30.453Z,6.90
2022-09-24T03:00:57.599Z,6.90
2022-09-24T03:03:24.436Z,7.00
2022-09-24T03:05:53.001Z,7.00
2022-09-24T03:08:24.287Z,7.00
2022-09-24T03:10:51.428Z,7.00
2022-09-24T03:13:18.978Z,7.10
2022-09-24T03:15:46.227Z,7.10
2022-09-24T03:18:13.744Z,7.10
2022-09-24T03:20:40.670Z,7.10
2022-09-24T03:23:07.368Z,7.10
2022-09-24T03:25:34.035Z,7.00
2022-09-24T03:28:00.791Z,7.00
2022-09-24T03:30:46.188Z,7.00
2022-09-24T03:33:13.790Z,6.90
2022-09-24T03:35:40.424Z,6.90
2022-09-24T03:38:07.081Z,6.80
2022-09-24T03:40:33.887Z,6.80
2022-09-24T03:43:00.656Z,6.80
2022-09-24T03:45:27.299Z,6.70
2022-09-24T03:47:53.934Z,6.70
2022-09-24T03:50:20.635Z,6.80
2022-09-24T03:52:47.284Z,6.80
2022-09-24T03:55:13.940Z,6.90
2022-09-24T03:57:40.586Z,6.90
2022-09-24T04:00:07.861Z,6.90
2022-09-24T04:02:34.554Z,6.90
2022-09-24T04:05:01.723Z,6.90
2022-09-24T04:07:28.392Z,6.90
2022-09-24T04:09:55.029Z,7.00
2022-09-24T04:12:21.683Z,7.10
2022-09-24T04:14:48.387Z,7.10
2022-09-24T04:17:16.795Z,7.10
2022-09-24T04:19:43.933Z,7.20
2022-09-24T04:22:10.601Z,7.20
2022-09-24T04:24:37.306Z,7.30
2022-09-24T04:27:04.053Z,7.30
2022-09-24T04:29:30.671Z,7.30
2022-09-24T04:31:57.315Z,7.30
2022-09-24T04:34:23.999Z,7.30
2022-09-24T04:36:50.664Z,7.40
2022-09-24T04:39:17.281Z,7.40
2022-09-24T04:41:43.932Z,7.40
2022-09-24T04:44:13.449Z,7.40
2022-09-24T04:46:40.247Z,7.40
2022-09-24T04:49:07.704Z,7.40
2022-09-24T04:51:35.489Z,7.40
2022-09-24T04:54:02.913Z,7.50
2022-09-24T04:56:30.909Z,7.50
2022-09-24T04:58:58.607Z,7.50
2022-09-24T05:01:25.960Z,7.50
2022-09-24T05:03:53.621Z,7.50
2022-09-24T05:06:20.295Z,7.50
2022-09-24T05:08:46.948Z,7.50
2022-09-24T05:11:13.714Z,7.50
2022-09-24T05:13:40.364Z,7.40
2022-09-24T05:16:07.239Z,7.40
2022-09-24T05:18:33.982Z,7.40
2022-09-24T05:21:00.623Z,7.40
2022-09-24T05:23:27.299Z,7.40
2022-09-24T05:26:12.644Z,7.40
2022-09-24T05:28:40.820Z,7.50
2022-09-24T05:31:09.109Z,7.50
2022-09-24T05:33:36.147Z,7.60
2022-09-24T05:36:03.576Z,7.70
2022-09-24T05:38:30.562Z,7.80
2022-09-24T05:40:57.740Z,7.90
2022-09-24T05:43:27.625Z,8.00
2022-09-24T05:45:54.696Z,8.10
2022-09-24T05:48:21.459Z,8.10
2022-09-24T05:50:48.107Z,8.20
2022-09-24T05:53:14.754Z,8.20
2022-09-24T05:55:43.308Z,8.30
2022-09-24T05:58:11.073Z,8.30
2022-09-24T06:00:37.895Z,8.40
2022-09-24T06:03:12.518Z,8.50
2022-09-24T06:05:43.467Z,8.50
2022-09-24T06:08:10.109Z,8.50
2022-09-24T06:10:36.767Z,8.50
2022-09-24T06:13:03.978Z,8.40
2022-09-24T06:15:30.994Z,8.40
2022-09-24T06:17:57.659Z,8.30
2022-09-24T06:20:24.375Z,8.30
2022-09-24T06:22:51.094Z,8.30
2022-09-24T06:25:17.775Z,8.40
2022-09-24T06:27:44.453Z,8.40
2022-09-24T06:30:11.841Z,8.30
2022-09-24T06:32:38.546Z,8.40
2022-09-24T06:35:06.128Z,8.50
2022-09-24T06:37:34.007Z,8.70
2022-09-24T06:40:00.792Z,8.80
2022-09-24T06:42:27.826Z,8.90
2022-09-24T06:44:54.471Z,9.20
2022-09-24T06:47:21.097Z,9.40
2022-09-24T06:49:47.948Z,9.60
2022-09-24T06:52:14.590Z,9.60
2022-09-24T06:54:41.250Z,9.70
2022-09-24T06:57:08.244Z,9.70
2022-09-24T06:59:34.895Z,9.70
2022-09-24T07:02:02.353Z,9.90
2022-09-24T07:04:29.045Z,10.20
2022-09-24T07:07:14.193Z,10.60
2022-09-24T07:09:41.482Z,10.80
2022-09-24T07:12:08.852Z,11.20
2022-09-24T07:14:35.627Z,11.50
2022-09-24T07:17:02.364Z,11.80
2022-09-24T07:19:28.995Z,12.10
2022-09-24T07:21:55.666Z,12.10
2022-09-24T07:24:22.323Z,12.40
2022-09-24T07:26:49.157Z,12.40
2022-09-24T07:29:16.120Z,12.50
2022-09-24T07:31:42.806Z,12.30
2022-09-24T07:34:09.528Z,11.80
2022-09-24T07:36:36.620Z,11.90
2022-09-24T07:39:03.623Z,12.50
2022-09-24T07:41:30.740Z,13.30
2022-09-24T07:43:57.601Z,13.80
2022-09-24T07:46:24.878Z,14.40
2022-09-24T07:48:57.988Z,14.70
2022-09-24T07:51:28.308Z,15.60
2022-09-24T07:53:56.200Z,16.10
2022-09-24T07:56:24.480Z,16.60
2022-09-24T07:58:54.093Z,16.60
2022-09-24T08:01:24.944Z,17.00
2022-09-24T08:03:54.142Z,17.40
2022-09-24T08:06:24.421Z,18.50
2022-09-24T08:08:53.071Z,19.70
2022-09-24T08:11:21.319Z,20.70
2022-09-24T08:13:48.406Z,20.60
2022-09-24T08:16:16.433Z,21.80
2022-09-24T08:18:43.644Z,22.50
2022-09-24T08:21:11.884Z,24.50
2022-09-24T08:23:40.150Z,25.80
2022-09-24T08:26:07.292Z,26.40
2022-09-24T08:28:34.638Z,26.90
2022-09-24T08:31:09.083Z,27.30
2022-09-24T08:33:37.346Z,27.40
2022-09-24T08:36:07.125Z,27.70
2022-09-24T08:38:34.006Z,27.90
2022-09-24T08:41:08.337Z,28.10
2022-09-24T08:43:54.834Z,26.70
2022-09-24T08:46:49.220Z,26.20
2022-09-24T08:49:22.187Z,25.30
2022-09-24T08:52:14.424Z,25.50
2022-09-24T08:54:43.902Z,27.30
2022-09-24T08:57:16.999Z,28.70
2022-09-24T08:59:47.170Z,30.30
2022-09-24T09:02:13.888Z,30.90
2022-09-24T09:04:54.810Z,30.00
2022-09-24T09:07:23.333Z,30.00
2022-09-24T09:10:07.919Z,31.20
2022-09-24T09:12:41.092Z,30.60
2022-09-24T09:15:16.770Z,30.90
2022-09-24T09:17:49.310Z,32.50
2022-09-24T09:20:34.983Z,33.00
2022-09-24T09:23:12.597Z,31.20
2022-09-24T09:25:47.157Z,30.80
2022-09-24T09:28:15.592Z,30.90
2022-09-24T09:31:21.119Z,31.60
2022-09-24T09:33:50.536Z,31.60
2022-09-24T09:36:21.179Z,30.90
2022-09-24T09:39:07.360Z,29.60
2022-09-24T09:41:56.319Z,28.90
2022-09-24T09:44:28.232Z,28.40
2022-09-24T09:47:11.559Z,28.00
2022-09-24T09:49:40.217Z,27.40
2022-09-24T09:52:15.680Z,28.10
2022-09-24T09:54:43.405Z,28.80
2022-09-24T09:57:20.043Z,28.40
2022-09-24T09:59:49.932Z,27.80
2022-09-24T10:02:30.228Z,28.70
2022-09-24T10:05:02.564Z,29.30
2022-09-24T10:07:31.512Z,29.00
2022-09-24T10:10:19.138Z,28.80
2022-09-24T10:12:46.227Z,28.50
2022-09-24T10:15:21.555Z,27.20
2022-09-24T10:17:52.597Z,26.50
2022-09-24T10:20:29.555Z,25.70
2022-09-24T10:23:04.573Z,24.80
2022-09-24T10:25:32.781Z,24.60
2022-09-24T10:28:20.189Z,23.50
2022-09-24T10:30:56.924Z,23.10
2022-09-24T10:33:24.248Z,23.40
2022-09-24T10:35:51.475Z,23.50
2022-09-24T10:38:20.768Z,23.20
2022-09-24T10:40:48.104Z,22.80
2022-09-24T10:43:22.025Z,22.00
2022-09-24T10:46:36.967Z,21.70
2022-09-24T10:49:25.307Z,21.30
2022-09-24T10:52:17.454Z,20.60
2022-09-24T10:55:16.912Z,20.60
2022-09-24T10:57:49.483Z,20.60
2022-09-24T11:00:24.752Z,20.50
2022-09-24T11:03:29.090Z,20.70
2022-09-24T11:06:13.895Z,20.90
2022-09-24T11:09:06.171Z,21.30
2022-09-24T11:11:41.627Z,21.70
2022-09-24T11:14:31.073Z,22.10
2022-09-24T11:17:12.569Z,22.70
2022-09-24T11:19:53.421Z,23.20
2022-09-24T11:22:20.044Z,23.50
2022-09-24T11:25:21.763Z,22.80
2022-09-24T11:28:17.651Z,22.60
2022-09-24T11:30:59.255Z,21.90
2022-09-24T11:33:55.410Z,21.70
2022-09-24T11:36:40.166Z,21.30
2022-09-24T11:39:09.657Z,21.30
2022-09-24T11:41:55.385Z,21.50
2022-09-24T11:44:52.399Z,21.70
2022-09-24T11:47:21.834Z,22.00
2022-09-24T11:50:21.672Z,21.90
2022-09-24T11:53:03.108Z,22.10
2022-09-24T11:55:42.222Z,22.40
2022-09-24T11:58:11.594Z,22.30
2022-09-24T12:00:43.903Z,21.80
2022-09-24T12:03:25.084Z,20.90
2022-09-24T12:06:23.676Z,20.60
2022-09-24T12:09:09.828Z,20.30
2022-09-24T12:11:49.987Z,20.40
2022-09-24T12:14:37.393Z,20.40
2022-09-24T12:17:10.405Z,20.70
2022-09-24T12:19:49.781Z,20.50
2022-09-24T12:22:19.197Z,20.40
2022-09-24T12:24:53.313Z,20.50
2022-09-24T12:27:28.137Z,20.60
2022-09-24T12:30:37.016Z,20.90
2022-09-24T12:33:15.233Z,20.90
2022-09-24T12:35:58.117Z,20.90
2022-09-24T12:38:32.298Z,21.00
2022-09-24T12:41:30.299Z,21.10
2022-09-24T12:44:10.326Z,21.60
2022-09-24T12:46:53.765Z,21.70
2022-09-24T12:49:26.675Z,21.90
2022-09-24T12:51:58.297Z,22.40
2022-09-24T12:54:30.975Z,22.60
2022-09-24T12:57:25.298Z,23.10
2022-09-24T13:00:05.753Z,23.90
2022-09-24T13:02:45.645Z,24.10
2022-09-24T13:05:27.304Z,24.00
2022-09-24T13:07:58.840Z,23.80
2022-09-24T13:10:28.658Z,23.00
2022-09-24T13:12:57.550Z,22.70
2022-09-24T13:15:31.693Z,22.90
2022-09-24T13:18:11.111Z,21.90
2022-09-24T13:20:49.242Z,22.20
2022-09-24T13:23:20.416Z,21.80
2022-09-24T13:26:00.030Z,21.70
2022-09-24T13:28:38.431Z,21.80
2022-09-24T13:31:23.685Z,22.00
2022-09-24T13:33:55.033Z,22.20
2022-09-24T13:36:36.889Z,21.90
2022-09-24T13:39:24.392Z,21.20
2022-09-24T13:42:12.716Z,21.10
2022-09-24T13:45:03.326Z,20.90
2022-09-24T13:47:42.668Z,20.70
2022-09-24T13:50:27.298Z,20.70
2022-09-24T13:52:57.965Z,20.50
2022-09-24T13:55:31.063Z,20.60
2022-09-24T13:57:58.566Z,20.60
2022-09-24T14:00:30.091Z,20.80
2022-09-24T14:03:03.509Z,20.90
2022-09-24T14:05:34.279Z,20.70
2022-09-24T14:08:12.502Z,20.60
2022-09-24T14:10:40.844Z,20.40
2022-09-24T14:13:21.777Z,20.30
2022-09-24T14:16:09.446Z,20.10
2022-09-24T14:18:39.935Z,19.90
2022-09-24T14:21:22.875Z,19.80
2022-09-24T14:23:55.493Z,19.90
2022-09-24T14:26:31.021Z,19.90
2022-09-24T14:29:02.430Z,20.00
2022-09-24T14:31:29.548Z,19.70
2022-09-24T14:33:57.234Z,19.80
2022-09-24T14:36:29.073Z,19.70
2022-09-24T14:39:01.517Z,19.90
2022-09-24T14:41:37.463Z,19.60
2022-09-24T14:44:25.616Z,19.70
2022-09-24T14:46:56.647Z,19.30
2022-09-24T14:49:27.083Z,19.00
2022-09-24T14:52:02.048Z,18.90
2022-09-24T14:54:42.225Z,18.70
2022-09-24T14:57:23.236Z,18.60
2022-09-24T14:59:49.900Z,18.40
2022-09-24T15:02:30.217Z,18.20
2022-09-24T15:05:06.249Z,18.10
2022-09-24T15:07:34.972Z,18.10
2022-09-24T15:10:04.265Z,18.00
2022-09-24T15:12:33.445Z,18.00
2022-09-24T15:15:27.902Z,18.00
2022-09-24T15:17:54.730Z,17.90
2022-09-24T15:20:21.411Z,17.90
2022-09-24T15:22:48.160Z,18.00
2022-09-24T15:25:15.542Z,17.90
2022-09-24T15:27:42.856Z,17.90
2022-09-24T15:30:27.703Z,17.80
2022-09-24T15:32:54.335Z,17.70
2022-09-24T15:35:21.248Z,17.60
2022-09-24T15:37:49.417Z,17.50
2022-09-24T15:40:25.401Z,17.50
2022-09-24T15:42:52.497Z,17.50
2022-09-24T15:45:21.533Z,17.50
2022-09-24T15:47:49.761Z,17.60
2022-09-24T15:50:17.187Z,17.40
2022-09-24T15:52:59.937Z,17.30
2022-09-24T15:55:27.429Z,17.30
2022-09-24T15:57:55.241Z,17.20
2022-09-24T16:00:23.992Z,17.10
2022-09-24T16:02:53.056Z,17.20
2022-09-24T16:05:20.682Z,17.10
2022-09-24T16:07:47.419Z,17.10
2022-09-24T16:10:15.129Z,17.10
2022-09-24T16:12:42.764Z,17.10
2022-09-24T16:15:14.233Z,17.00
2022-09-24T16:17:41.183Z,17.00
2022-09-24T16:20:09.829Z,16.90
2022-09-24T16:22:37.595Z,16.80
2022-09-24T16:25:04.869Z,16.70
2022-09-24T16:27:31.565Z,16.70
2022-09-24T16:29:58.387Z,16.60
2022-09-24T16:32:25.107Z,16.60
2022-09-24T16:34:51.919Z,16.50
2022-09-24T16:37:18.929Z,16.40
2022-09-24T16:39:45.970Z,16.30
2022-09-24T16:42:12.641Z,16.30
2022-09-24T16:44:39.429Z,16.20
2022-09-24T16:47:06.156Z,16.10
2022-09-24T16:49:33.012Z,16.10
2022-09-24T16:51:59.773Z,16.10
2022-09-24T16:54:29.546Z,16.00
2022-09-24T16:56:57.537Z,16.10
2022-09-24T16:59:24.230Z,15.70
2022-09-24T17:01:50.984Z,15.80
2022-09-24T17:04:17.950Z,15.70
2022-09-24T17:06:45.792Z,15.60
2022-09-24T17:09:31.616Z,15.50
2022-09-24T17:11:58.334Z,15.40
2022-09-24T17:14:25.138Z,15.30
2022-09-24T17:16:51.873Z,15.20
2022-09-24T17:19:18.658Z,15.10
2022-09-24T17:21:46.825Z,15.00
2022-09-24T17:24:20.601Z,14.90
2022-09-24T17:26:48.909Z,14.80
2022-09-24T17:29:15.660Z,14.70
2022-09-24T17:31:42.533Z,14.60
2022-09-24T17:34:12.644Z,14.60
2022-09-24T17:36:39.310Z,14.50
2022-09-24T17:39:06.429Z,14.40
2022-09-24T17:41:34.069Z,14.40
2022-09-24T17:44:01.846Z,14.40
2022-09-24T17:46:31.585Z,14.30
2022-09-24T17:49:00.218Z,14.30
2022-09-24T17:51:32.596Z,14.30
2022-09-24T17:54:01.779Z,14.30
2022-09-24T17:56:32.151Z,14.20
2022-09-24T17:59:00.516Z,14.20
2022-09-24T18:01:29.702Z,14.10
2022-09-24T18:03:59.266Z,14.10
2022-09-24T18:06:32.547Z,14.00
2022-09-24T18:09:01.714Z,13.90
2022-09-24T18:11:32.089Z,13.90
2022-09-24T18:14:01.263Z,13.80
2022-09-24T18:16:31.164Z,13.80
2022-09-24T18:19:02.520Z,13.80
2022-09-24T18:21:30.008Z,13.70
2022-09-24T18:23:58.797Z,13.60
2022-09-24T18:26:29.330Z,13.50
2022-09-24T18:28:59.760Z,13.40
2022-09-24T18:31:28.837Z,13.30
2022-09-24T18:34:05.042Z,13.20
2022-09-24T18:36:37.054Z,13.20
2022-09-24T18:39:06.034Z,13.10
2022-09-24T18:41:33.429Z,13.00
2022-09-24T18:44:00.685Z,13.00
2022-09-24T18:46:30.131Z,12.90
2022-09-24T18:48:58.505Z,12.80
2022-09-24T18:51:27.405Z,12.80
2022-09-24T18:54:05.996Z,12.80
2022-09-24T18:56:33.475Z,12.80
2022-09-24T18:59:09.816Z,12.90
2022-09-24T19:01:38.166Z,12.90
2022-09-24T19:04:07.081Z,12.90
2022-09-24T19:06:35.775Z,13.00
2022-09-24T19:09:04.642Z,12.90
2022-09-24T19:11:31.996Z,12.80
2022-09-24T19:13:59.379Z,12.80
2022-09-24T19:16:26.444Z,12.70
2022-09-24T19:18:53.957Z,12.70
2022-09-24T19:21:23.077Z,12.80
2022-09-24T19:23:56.361Z,12.70
2022-09-24T19:26:26.442Z,12.70
2022-09-24T19:28:53.571Z,12.70
2022-09-24T19:31:30.065Z,12.70
2022-09-24T19:33:58.120Z,12.70
2022-09-24T19:36:24.869Z,12.70
2022-09-24T19:38:51.978Z,12.70
2022-09-24T19:41:24.800Z,12.60
2022-09-24T19:43:56.907Z,12.60
2022-09-24T19:46:25.597Z,12.60
2022-09-24T19:48:56.659Z,12.60
2022-09-24T19:51:24.878Z,12.50
2022-09-24T19:53:54.111Z,12.50
2022-09-24T19:56:23.270Z,12.50
2022-09-24T19:58:52.732Z,12.40
2022-09-24T20:01:21.723Z,12.50
2022-09-24T20:03:48.753Z,12.40
2022-09-24T20:06:20.757Z,12.40
2022-09-24T20:08:47.497Z,12.40
2022-09-24T20:11:20.351Z,12.40
2022-09-24T20:13:48.992Z,12.40
2022-09-24T20:16:20.594Z,12.50
2022-09-24T20:18:48.923Z,12.40
2022-09-24T20:21:18.347Z,12.40
2022-09-24T20:23:47.006Z,12.40
2022-09-24T20:26:33.572Z,12.30
2022-09-24T20:29:00.542Z,12.30
2022-09-24T20:31:27.760Z,12.30
2022-09-24T20:33:54.664Z,12.20
2022-09-24T20:36:24.406Z,12.30
2022-09-24T20:38:52.005Z,12.30
2022-09-24T20:41:24.642Z,12.30
2022-09-24T20:43:55.452Z,12.30
2022-09-24T20:46:24.839Z,12.40
2022-09-24T20:48:52.758Z,12.40
2022-09-24T20:51:21.542Z,12.30
2022-09-24T20:53:49.451Z,12.30
2022-09-24T20:56:17.799Z,12.30
2022-09-24T20:58:44.491Z,12.20
2022-09-24T21:01:12.037Z,12.20
2022-09-24T21:03:45.163Z,12.20
2022-09-24T21:06:13.172Z,12.10
2022-09-24T21:08:42.324Z,12.10
2022-09-24T21:11:16.146Z,12.10
2022-09-24T21:13:44.856Z,12.10
2022-09-24T21:16:13.434Z,12.10
2022-09-24T21:18:44.918Z,12.10
2022-09-24T21:21:16.928Z,12.10
2022-09-24T21:23:49.460Z,12.10
2022-09-24T21:26:18.598Z,12.00
2022-09-24T21:28:46.896Z,12.00
2022-09-24T21:31:21.015Z,11.90
2022-09-24T21:33:49.693Z,12.10
2022-09-24T21:36:19.695Z,12.10
2022-09-24T21:38:58.016Z,12.00
2022-09-24T21:41:28.279Z,12.10
2022-09-24T21:43:55.796Z,12.00
2022-09-24T21:46:24.684Z,12.10
2022-09-24T21:48:51.830Z,12.10
2022-09-24T21:51:22.898Z,12.10
2022-09-24T21:53:50.538Z,12.20
2022-09-24T21:56:20.977Z,12.20
2022-09-24T21:58:52.313Z,12.10
2022-09-24T22:01:22.846Z,12.10
2022-09-24T22:03:51.819Z,12.10
2022-09-24T22:06:18.591Z,12.00
2022-09-24T22:08:46.414Z,12.00
2022-09-24T22:11:13.860Z,12.00
2022-09-24T22:13:41.023Z,11.90
2022-09-24T22:16:10.733Z,11.90
2022-09-24T22:18:38.212Z,11.90
2022-09-24T22:21:09.453Z,11.90
2022-09-24T22:23:36.664Z,11.90
2022-09-24T22:26:04.045Z,11.80
2022-09-24T22:28:30.833Z,11.90
2022-09-24T22:31:00.030Z,11.90
2022-09-24T22:33:47.995Z,11.90
2022-09-24T22:36:15.171Z,11.90
2022-09-24T22:38:42.253Z,11.90
2022-09-24T22:41:11.044Z,11.80
2022-09-24T22:43:39.071Z,11.80
2022-09-24T22:46:11.548Z,11.80
2022-09-24T22:48:38.867Z,11.80
2022-09-24T22:51:06.853Z,11.80
2022-09-24T22:53:35.238Z,11.80
2022-09-24T22:56:12.202Z,11.80
2022-09-24T22:58:46.585Z,11.80
2022-09-24T23:01:16.356Z,11.70
2022-09-24T23:03:44.259Z,11.80
2022-09-24T23:06:11.942Z,11.70
2022-09-24T23:08:40.720Z,11.70
2022-09-24T23:11:21.642Z,11.70
2022-09-24T23:13:53.368Z,11.70
2022-09-24T23:16:26.272Z,11.70
2022-09-24T23:18:55.659Z,11.60
2022-09-24T23:21:24.280Z,11.50
2022-09-24T23:23:59.450Z,11.60
2022-09-24T23:26:26.811Z,11.60
2022-09-24T23:28:55.374Z,11.60
2022-09-24T23:31:27.477Z,11.60
2022-09-24T23:33:56.153Z,11.60
2022-09-24T23:36:23.925Z,11.60
2022-09-24T23:38:50.613Z,11.70
2022-09-24T23:41:17.387Z,11.70
2022-09-24T23:43:44.071Z,11.70
2022-09-24T23:46:11.438Z,11.80
2022-09-24T23:48:38.305Z,11.80
2022-09-24T23:51:05.791Z,11.80
2022-09-24T23:53:34.164Z,11.80
2022-09-24T23:56:01.779Z,11.70
2022-09-24T23:58:28.522Z,11.70
